createdAt,value
2023-04-27T00:02:16.591Z,51.10
2023-04-27T00:04:45.115Z,54.65
2023-04-27T00:07:12.496Z,49.20
2023-04-27T00:09:39.489Z,53.17
2023-04-27T00:12:07.301Z,59.75
2023-04-27T00:14:34.304Z,50.03
2023-04-27T00:17:01.332Z,48.53
2023-04-27T00:19:28.648Z,46.05
2023-04-27T00:21:58.066Z,45.60
2023-04-27T00:24:25.201Z,50.42
2023-04-27T00:26:52.431Z,54.40
2023-04-27T00:29:19.565Z,53.00
2023-04-27T00:31:46.551Z,48.13
2023-04-27T00:34:13.696Z,49.85
2023-04-27T00:36:40.862Z,38.58
2023-04-27T00:39:09.357Z,39.67
2023-04-27T00:41:42.230Z,40.33
2023-04-27T00:44:09.347Z,40.60
2023-04-27T00:46:37.395Z,52.50
2023-04-27T00:49:04.494Z,42.70
2023-04-27T00:51:32.378Z,37.20
2023-04-27T00:54:00.068Z,34.25
2023-04-27T00:56:27.095Z,32.92
2023-04-27T00:58:54.229Z,28.33
2023-04-27T01:01:21.290Z,28.38
2023-04-27T01:03:49.066Z,31.92
2023-04-27T01:06:16.300Z,25.80
2023-04-27T01:08:43.415Z,29.00
2023-04-27T01:11:10.519Z,25.52
2023-04-27T01:13:37.536Z,26.17
2023-04-27T01:16:04.774Z,24.65
2023-04-27T01:18:32.048Z,28.33
2023-04-27T01:21:00.619Z,26.40
2023-04-27T01:23:27.749Z,23.30
2023-04-27T01:25:54.732Z,23.27
2023-04-27T01:28:21.795Z,34.42
2023-04-27T01:30:48.882Z,30.05
2023-04-27T01:33:16.245Z,36.25
2023-04-27T01:35:43.362Z,40.67
2023-04-27T01:38:10.532Z,43.42
2023-04-27T01:40:37.891Z,30.75
2023-04-27T01:43:05.122Z,26.33
2023-04-27T01:45:32.244Z,19.35
2023-04-27T01:47:59.244Z,22.45
2023-04-27T01:50:26.419Z,19.73
2023-04-27T01:52:53.458Z,22.13
2023-04-27T01:55:20.608Z,21.23
2023-04-27T01:57:47.643Z,29.88
2023-04-27T02:00:14.868Z,32.20
2023-04-27T02:02:42.266Z,34.50
2023-04-27T02:05:09.956Z,36.20
2023-04-27T02:07:36.986Z,35.90
2023-04-27T02:10:04.414Z,36.22
2023-04-27T02:12:34.893Z,29.58
2023-04-27T02:15:03.441Z,29.65
2023-04-27T02:17:31.442Z,25.25
2023-04-27T02:19:58.527Z,31.08
2023-04-27T02:22:25.609Z,25.77
2023-04-27T02:24:52.625Z,24.80
2023-04-27T02:27:19.629Z,22.80
2023-04-27T02:30:13.089Z,20.83
2023-04-27T02:32:41.628Z,18.35
2023-04-27T02:35:09.390Z,18.02
2023-04-27T02:37:37.004Z,15.00
2023-04-27T02:40:05.035Z,21.13
2023-04-27T02:42:32.106Z,18.45
2023-04-27T02:44:59.177Z,17.52
2023-04-27T02:47:26.884Z,19.50
2023-04-27T02:49:53.924Z,20.70
2023-04-27T02:52:20.908Z,21.83
2023-04-27T02:54:47.953Z,18.73
2023-04-27T02:57:15.077Z,21.02
2023-04-27T02:59:42.128Z,18.23
2023-04-27T03:02:09.593Z,22.17
2023-04-27T03:04:36.916Z,20.35
2023-04-27T03:07:04.708Z,23.05
2023-04-27T03:09:31.752Z,24.52
2023-04-27T03:11:59.003Z,24.95
2023-04-27T03:14:26.064Z,17.00
2023-04-27T03:16:54.494Z,15.95
2023-04-27T03:19:21.499Z,15.63
2023-04-27T03:21:48.522Z,18.35
2023-04-27T03:24:15.842Z,16.38
2023-04-27T03:26:42.842Z,17.73
2023-04-27T03:29:10.214Z,16.55
2023-04-27T03:31:37.620Z,17.08
2023-04-27T03:34:04.680Z,15.68
2023-04-27T03:36:32.380Z,19.10
2023-04-27T03:38:59.390Z,17.85
2023-04-27T03:41:26.478Z,19.83
2023-04-27T03:43:53.680Z,21.02
2023-04-27T03:46:20.866Z,19.48
2023-04-27T03:48:47.932Z,20.77
2023-04-27T03:51:15.295Z,20.60
2023-04-27T03:53:42.353Z,19.08
2023-04-27T03:56:09.570Z,21.38
2023-04-27T03:58:36.621Z,16.95
2023-04-27T04:01:03.672Z,20.27
2023-04-27T04:03:30.993Z,27.95
2023-04-27T04:05:58.269Z,27.20
2023-04-27T04:08:25.270Z,22.58
2023-04-27T04:10:52.288Z,19.63
2023-04-27T04:13:19.498Z,29.30
2023-04-27T04:15:46.640Z,36.75
2023-04-27T04:18:13.789Z,46.97
2023-04-27T04:20:41.049Z,46.30
2023-04-27T04:23:08.092Z,60.45
2023-04-27T04:25:35.426Z,58.33
2023-04-27T04:28:02.603Z,60.85
2023-04-27T04:30:29.679Z,55.47
2023-04-27T04:32:56.959Z,56.10
2023-04-27T04:35:23.947Z,62.17
2023-04-27T04:37:51.436Z,78.22
2023-04-27T04:40:19.318Z,89.47
2023-04-27T04:42:46.915Z,93.75
2023-04-27T04:45:14.211Z,69.63
2023-04-27T04:47:41.644Z,59.63
2023-04-27T04:50:13.307Z,65.15
2023-04-27T04:52:40.419Z,62.42
2023-04-27T04:55:07.639Z,63.85
2023-04-27T04:57:34.733Z,72.97
2023-04-27T05:00:02.100Z,66.28
2023-04-27T05:02:29.539Z,58.08
2023-04-27T05:04:57.641Z,49.35
2023-04-27T05:07:25.213Z,40.28
2023-04-27T05:09:52.599Z,35.58
2023-04-27T05:12:19.684Z,26.38
2023-04-27T05:14:46.810Z,21.88
2023-04-27T05:17:14.022Z,23.77
2023-04-27T05:19:41.144Z,24.38
2023-04-27T05:22:09.154Z,26.10
2023-04-27T05:24:36.246Z,20.95
2023-04-27T05:27:04.097Z,23.73
2023-04-27T05:29:31.249Z,27.77
2023-04-27T05:31:59.029Z,26.63
2023-04-27T05:34:26.121Z,24.63
2023-04-27T05:36:59.316Z,37.33
2023-04-27T05:39:30.803Z,41.28
2023-04-27T05:42:01.611Z,36.00
2023-04-27T05:44:29.603Z,32.65
2023-04-27T05:46:56.650Z,28.48
2023-04-27T05:49:23.904Z,26.63
2023-04-27T05:51:54.731Z,29.60
2023-04-27T05:54:22.245Z,24.98
2023-04-27T05:56:50.932Z,30.83
2023-04-27T05:59:18.078Z,28.35
2023-04-27T06:01:45.229Z,26.35
2023-04-27T06:04:12.608Z,31.98
2023-04-27T06:06:39.684Z,32.08
2023-04-27T06:09:06.789Z,29.20
2023-04-27T06:11:33.805Z,28.67
2023-04-27T06:14:00.870Z,29.10
2023-04-27T06:16:28.464Z,35.40
2023-04-27T06:18:55.668Z,33.90
2023-04-27T06:21:22.896Z,36.20
2023-04-27T06:23:50.032Z,34.25
2023-04-27T06:26:17.096Z,36.95
2023-04-27T06:28:51.892Z,35.30
2023-04-27T06:31:19.062Z,34.38
2023-04-27T06:33:46.335Z,47.58
2023-04-27T06:36:13.798Z,56.28
2023-04-27T06:38:44.030Z,43.85
2023-04-27T06:41:11.385Z,28.65
2023-04-27T06:43:38.744Z,35.83
2023-04-27T06:46:05.961Z,41.63
2023-04-27T06:48:33.114Z,40.90
2023-04-27T06:51:00.231Z,45.95
2023-04-27T06:53:27.244Z,37.33
2023-04-27T06:55:54.581Z,26.50
2023-04-27T06:58:22.653Z,28.75
2023-04-27T07:00:50.029Z,30.98
2023-04-27T07:03:17.392Z,28.77
2023-04-27T07:05:44.792Z,34.55
2023-04-27T07:08:12.542Z,34.85
2023-04-27T07:10:39.786Z,36.42
2023-04-27T07:13:09.217Z,34.78
2023-04-27T07:18:04.409Z,39.85
2023-04-27T07:20:32.130Z,39.65
2023-04-27T07:22:59.309Z,46.35
2023-04-27T07:25:26.870Z,45.15
2023-04-27T07:27:55.129Z,45.33
2023-04-27T07:30:23.558Z,39.20
2023-04-27T07:32:54.885Z,41.80
2023-04-27T07:35:22.528Z,46.25
2023-04-27T07:37:49.858Z,41.15
2023-04-27T07:40:17.273Z,42.20
2023-04-27T07:42:45.105Z,43.45
2023-04-27T07:45:12.573Z,41.67
2023-04-27T07:47:39.851Z,47.95
2023-04-27T07:50:07.819Z,44.08
2023-04-27T07:52:34.957Z,32.33
2023-04-27T07:55:02.211Z,30.73
2023-04-27T07:57:29.452Z,31.08
2023-04-27T07:59:57.293Z,29.35
2023-04-27T08:02:24.579Z,23.65
2023-04-27T08:04:51.995Z,25.38
2023-04-27T08:07:19.808Z,24.70
2023-04-27T08:09:47.006Z,26.38
2023-04-27T08:12:14.932Z,21.95
2023-04-27T08:14:42.237Z,11.20
2023-04-27T08:17:11.709Z,12.77
2023-04-27T08:19:39.248Z,19.30
2023-04-27T08:22:06.474Z,14.98
2023-04-27T08:24:36.647Z,18.75
2023-04-27T08:28:04.119Z,29.98
2023-04-27T08:30:31.348Z,19.83
2023-04-27T08:32:58.504Z,19.70
2023-04-27T08:35:25.611Z,18.17
2023-04-27T08:37:54.609Z,17.48
2023-04-27T08:41:20.410Z,14.13
2023-04-27T08:43:59.708Z,15.98
2023-04-27T08:47:02.995Z,16.77
2023-04-27T09:00:39.743Z,16.67
2023-04-27T09:03:07.183Z,13.13
2023-04-27T09:05:34.956Z,13.02
2023-04-27T09:08:05.786Z,12.20
2023-04-27T09:10:45.166Z,11.98
2023-04-27T09:13:12.439Z,11.82
2023-04-27T09:15:50.633Z,12.82
2023-04-27T09:18:23.393Z,14.63
2023-04-27T09:20:52.099Z,13.00
2023-04-27T09:23:46.890Z,15.38
2023-04-27T09:26:23.548Z,16.70
2023-04-27T09:28:58.587Z,14.07
2023-04-27T09:31:36.379Z,11.82
2023-04-27T09:34:06.131Z,12.52
2023-04-27T09:36:33.542Z,14.33
2023-04-27T09:39:05.103Z,13.15
2023-04-27T09:41:33.720Z,11.65
2023-04-27T09:44:01.996Z,11.95
2023-04-27T09:46:30.231Z,10.88
2023-04-27T09:48:57.703Z,8.27
2023-04-27T09:51:24.851Z,12.27
2023-04-27T09:53:57.901Z,12.10
2023-04-27T09:56:47.908Z,7.85
2023-04-27T09:59:55.951Z,7.88
2023-04-27T10:02:25.688Z,12.32
2023-04-27T10:05:09.407Z,13.20
2023-04-27T10:07:38.905Z,7.07
2023-04-27T10:10:07.573Z,6.30
2023-04-27T10:13:20.631Z,10.10
2023-04-27T10:15:47.842Z,5.43
2023-04-27T10:18:35.518Z,6.82
2023-04-27T10:21:14.313Z,8.73
2023-04-27T10:23:51.470Z,7.72
2023-04-27T10:26:28.484Z,7.35
2023-04-27T10:29:07.894Z,7.75
2023-04-27T10:31:35.240Z,7.70
2023-04-27T10:34:09.035Z,6.22
2023-04-27T10:36:39.670Z,6.07
2023-04-27T10:41:53.826Z,5.13
2023-04-27T10:44:30.293Z,8.50
2023-04-27T10:47:01.655Z,6.07
2023-04-27T10:49:29.672Z,7.78
2023-04-27T10:51:58.894Z,7.18
2023-04-27T10:54:30.132Z,4.75
2023-04-27T10:57:17.397Z,4.22
2023-04-27T10:59:52.250Z,5.50
2023-04-27T11:02:26.845Z,6.18
2023-04-27T11:04:54.272Z,8.38
2023-04-27T11:07:28.517Z,7.35
2023-04-27T11:09:56.081Z,9.70
2023-04-27T11:12:24.290Z,14.40
2023-04-27T11:14:59.382Z,6.55
2023-04-27T11:17:46.025Z,8.32
2023-04-27T11:20:13.646Z,9.52
2023-04-27T11:22:48.453Z,6.43
2023-04-27T11:25:16.999Z,5.82
2023-04-27T11:27:45.742Z,11.15
2023-04-27T11:30:22.972Z,9.25
2023-04-27T11:32:50.301Z,8.45
2023-04-27T11:35:18.745Z,7.22
2023-04-27T11:37:56.352Z,5.28
2023-04-27T11:40:24.654Z,11.05
2023-04-27T11:42:58.751Z,7.07
2023-04-27T11:45:28.315Z,6.13
2023-04-27T11:47:55.702Z,8.02
2023-04-27T11:50:27.213Z,5.88
2023-04-27T11:52:54.603Z,8.02
2023-04-27T11:55:22.346Z,7.07
2023-04-27T11:57:49.411Z,6.45
2023-04-27T12:00:25.552Z,6.68
2023-04-27T12:02:52.973Z,13.35
2023-04-27T12:10:45.729Z,6.15
2023-04-27T12:13:14.378Z,7.20
2023-04-27T12:15:42.797Z,7.40
2023-04-27T12:18:11.249Z,7.53
2023-04-27T12:20:39.613Z,5.22
2023-04-27T12:23:06.730Z,10.75
2023-04-27T12:25:33.864Z,10.73
2023-04-27T12:28:20.884Z,8.52
2023-04-27T12:50:11.252Z,16.88
2023-04-27T12:52:38.849Z,9.50
2023-04-27T12:55:28.937Z,7.20
2023-04-27T12:57:59.354Z,6.40
2023-04-27T13:00:32.351Z,7.97
2023-04-27T13:03:02.768Z,6.22
2023-04-27T13:07:59.636Z,8.95
2023-04-27T13:10:26.891Z,5.70
2023-04-27T13:12:54.744Z,8.20
2023-04-27T13:15:21.912Z,6.53
2023-04-27T13:17:49.248Z,8.55
2023-04-27T13:20:16.491Z,6.55
2023-04-27T13:22:43.833Z,6.25
2023-04-27T13:25:11.178Z,6.55
2023-04-27T13:27:38.621Z,5.72
2023-04-27T13:30:07.116Z,5.05
2023-04-27T13:32:34.523Z,5.07
2023-04-27T13:35:01.625Z,5.97
2023-04-27T13:37:28.857Z,5.65
2023-04-27T13:39:56.143Z,6.72
2023-04-27T13:42:29.511Z,4.65
2023-04-27T13:44:57.491Z,6.53
2023-04-27T13:47:24.779Z,7.55
2023-04-27T13:49:52.109Z,4.28
2023-04-27T13:52:19.470Z,7.63
2023-04-27T13:54:46.633Z,5.70
2023-04-27T14:03:19.921Z,6.13
2023-04-27T14:24:49.866Z,9.13
2023-04-27T14:27:20.789Z,7.03
2023-04-27T14:29:48.420Z,10.63
2023-04-27T14:32:20.076Z,6.63
2023-04-27T14:34:48.242Z,9.20
2023-04-27T14:37:15.765Z,9.60
2023-04-27T14:39:49.438Z,5.10
2023-04-27T14:46:04.776Z,11.65
2023-04-27T14:51:32.738Z,6.32
2023-04-27T14:54:06.424Z,6.00
2023-04-27T16:31:41.373Z,19.77
2023-04-27T16:34:18.822Z,18.55
2023-04-27T16:39:42.075Z,8.93
2023-04-27T16:42:14.386Z,7.45
2023-04-27T16:44:42.465Z,9.65
2023-04-27T16:47:09.887Z,29.33
2023-04-27T16:49:38.105Z,7.22
2023-04-27T16:52:06.259Z,10.82
2023-04-27T16:57:32.144Z,7.80
2023-04-27T17:00:03.259Z,11.38
2023-04-27T17:02:30.951Z,11.38
2023-04-27T17:05:00.887Z,8.98
2023-04-27T17:07:33.230Z,10.03
2023-04-27T17:10:02.912Z,14.23
2023-04-27T17:12:30.114Z,21.73
2023-04-27T17:18:05.554Z,49.70
2023-04-27T17:20:34.723Z,46.17
2023-04-27T17:23:05.155Z,36.95
2023-04-27T17:25:35.004Z,63.40
2023-04-27T17:28:03.166Z,35.83
2023-04-27T17:30:30.622Z,30.50
2023-04-27T17:32:58.137Z,23.58
2023-04-27T17:35:26.309Z,24.55
2023-04-27T17:37:54.239Z,45.50
2023-04-27T18:16:55.190Z,84.63
2023-04-27T18:19:44.397Z,79.60
2023-04-27T18:22:23.248Z,70.00
2023-04-27T18:36:13.243Z,65.45
2023-04-27T18:38:40.869Z,62.30
2023-04-27T18:41:17.061Z,61.70
2023-04-27T18:43:44.590Z,71.93
2023-04-27T18:46:12.147Z,65.68
2023-04-27T18:48:39.464Z,87.03
2023-04-27T18:51:08.542Z,113.43
2023-04-27T18:53:35.982Z,120.50
2023-04-27T18:56:03.655Z,111.03
2023-04-27T18:58:32.134Z,122.25
2023-04-27T19:01:00.067Z,101.47
2023-04-27T19:03:27.929Z,123.97
2023-04-27T19:05:59.792Z,112.80
2023-04-27T19:08:28.453Z,88.93
2023-04-27T19:10:55.776Z,75.72
2023-04-27T19:13:28.770Z,101.63
2023-04-27T19:15:57.095Z,86.13
2023-04-27T19:18:24.368Z,82.28
2023-04-27T19:20:52.301Z,98.63
2023-04-27T19:23:20.187Z,92.97
2023-04-27T19:25:48.697Z,98.65
2023-04-27T19:28:19.649Z,81.32
2023-04-27T19:30:49.529Z,70.20
2023-04-27T19:33:19.731Z,79.25
2023-04-27T19:38:18.494Z,83.32
2023-04-27T19:43:15.541Z,65.13
2023-04-27T19:45:44.124Z,72.93
2023-04-27T19:48:11.580Z,81.43
2023-04-27T19:50:42.195Z,75.30
2023-04-27T19:53:10.007Z,78.70
2023-04-27T19:55:38.052Z,76.80
2023-04-27T19:58:06.262Z,80.60
2023-04-27T20:00:33.957Z,85.47
2023-04-27T20:03:01.630Z,81.18
2023-04-27T20:05:29.751Z,108.53
2023-04-27T20:07:57.642Z,100.43
2023-04-27T20:10:25.502Z,82.50
2023-04-27T20:12:56.853Z,77.43
2023-04-27T20:15:25.249Z,70.85
2023-04-27T20:17:54.582Z,60.08
2023-04-27T20:20:21.975Z,53.45
2023-04-27T20:22:49.788Z,62.25
2023-04-27T20:25:20.006Z,59.65
2023-04-27T20:27:50.911Z,63.38
2023-04-27T20:30:18.325Z,81.15
2023-04-27T20:32:46.971Z,75.82
2023-04-27T20:35:14.703Z,71.75
2023-04-27T20:37:43.955Z,65.82
2023-04-27T20:40:14.710Z,55.85
2023-04-27T20:43:16.461Z,63.38
2023-04-27T20:45:43.922Z,118.53
2023-04-27T20:54:39.341Z,109.93
2023-04-27T20:57:38.929Z,116.70
2023-04-27T21:03:06.955Z,91.30
2023-04-27T21:25:26.532Z,72.82
2023-04-27T21:45:25.277Z,57.35
2023-04-27T21:54:14.371Z,85.15
2023-04-27T23:11:43.061Z,49.95
2023-04-27T23:34:04.953Z,40.60
2023-04-27T23:49:35.192Z,44.35
2023-04-27T23:52:02.369Z,42.38
2023-04-27T23:54:32.708Z,39.50
2023-04-27T23:56:59.827Z,39.63
2023-04-27T23:59:26.964Z,39.42
